KLPC/LPC METAR and TAF weather

Enter ICAO airport designator
Station Type Date Time Source
KLPC METAR 2021/03/06 00:56 UTC NOAA

KLPC 060056Z AUTO 30012KT 10SM CLR 14/07 A3010 RMK AO2 SLP196 T01390072


Station Type Date Time Source
KLPC Decoded METAR 2021/03/06 00:56 UTC NOAA

Lompoc, Lompoc Airport, CA, United States (KLPC) 34-40N 120-28W
Mar 05, 2021 - 07:56 PM EST / 2021.03.06 0056 UTC
Wind: from the WNW (300 degrees) at 14 MPH (12 KT):0
Visibility: 10 mile(s):0
Sky conditions: clear
Temperature: 57.0 F (13.9 C)
Dew Point: 45.0 F (7.2 C)
Relative Humidity: 63%
Pressure (altimeter): 30.1 in. Hg (1019 hPa)
ob: KLPC 060056Z AUTO 30012KT 10SM CLR 14/07 A3010 RMK AO2 SLP196 T01390072
cycle: 1

Station Type Date Time Source
KLPC TAF UTC NOAA

Error!

Example: see airport list